Rocky Mountain Metropolitan Airport
KBJC : now visible

Airfield :











YOU CAN JOIN US ON...

 
LOGIN :

Register | Disclaimer

   EN    FR    IT 

 









Legend :    VFR   Marginal VFR   IFR   Intensive IFR   Very Intensive IFR
Visi :
Ceiling :
>= 8 km
>= 3000ft
5 to 8 km
1000 to 3000 ft
1500m to 5 km
500 to 1000 ft
800 to 1500m
200 to 500 ft
< 800m
< 200 ft
Symbols :   Thunderstorms  Fog  Heavy snow  Heavy precipitations  Wind > 20 kt






- Airport Elevation : 5673 ft


KBJC - Rocky Mountain Metropolitan

METAR N/A
TAF KBJC
Valid from the 23 at 18:00 until the 24 at 18:00 UTC


231736Z 2318/2418 06005KT P6SM FEW080 SCT130
FM232100 01014KT P6SM VCTS SCT080CB BKN120
TEMPO 2322/2402 VRB20G30KT -TSRA BKN060CB
FM240200 33008KT P6SM VCSH SCT050 BKN120
FM240600 27008KT P6SM VCSH SCT050 BKN120
FM241600 VRB05KT P6SM FEW080 SCT110 BKN200
KZDV FIR / North America



MET'MAP, your aeronautical weather chart ! - Copyright ORBIFLY December 2007 - Disclaimer

ORBIFLY MET'MAP TEAM :

Programming & Development : Alexandra Zaïnal
Concept & original design : Baudouin d'Aumeries
Assistance for programming : Marc-Olivier Méhu
Technical & hardware support : Manuel Goepfert

Contact : metmap@orbifly.com




SOURCES & CREDITS :

   NOAA       Earth
Advisory